Time;durP1;ratioP1;P1;durP2;ratioP2;P2;SDS_P1;SDS_P2;PMS_P1;PMS_P2;Temp;Humidity;BMP_temperature;BMP_pressure;BME280_temperature;BME280_humidity;BME280_pressure;Samples;Min_cycle;Max_cycle;Signal;HPM_P1;HPM_P2
2023/05/02 00:00:02;;;;;;;6.00;3.60;;;;;;;;;;4972694;28;20402;-83
2023/05/02 00:02:28;;;;;;;6.47;3.88;;;;;;;;;;4974992;28;20586;-83
2023/05/02 00:04:53;;;;;;;4.05;3.22;;;;;;;;;;4973546;28;20066;-84
2023/05/02 00:07:19;;;;;;;3.85;3.10;;;;;;;;;;4975242;28;20066;-82
2023/05/02 00:09:45;;;;;;;3.53;2.80;;;;;;;;;;4980592;28;20038;-84
2023/05/02 00:12:10;;;;;;;5.53;3.45;;;;;;;;;;4977396;28;20284;-83
2023/05/02 00:14:35;;;;;;;3.92;3.40;;;;;;;;;;4973809;28;20995;-84
2023/05/02 00:17:01;;;;;;;3.50;3.20;;;;;;;;;;4969925;28;20150;-83
2023/05/02 00:19:26;;;;;;;4.55;3.50;;;;;;;;;;4991757;28;20038;-84
2023/05/02 00:21:52;;;;;;;3.97;3.28;;;;;;;;;;4987497;28;20030;-84
2023/05/02 00:24:17;;;;;;;4.60;3.28;;;;;;;;;;4999631;28;20477;-82
2023/05/02 00:26:43;;;;;;;6.00;3.35;;;;;;;;;;4992157;28;20026;-83
2023/05/02 00:29:08;;;;;;;5.15;3.38;;;;;;;;;;4994228;28;20489;-83
2023/05/02 00:31:34;;;;;;;5.22;3.88;;;;;;;;;;4985317;28;20049;-83
2023/05/02 00:34:00;;;;;;;4.60;3.60;;;;;;;;;;4987934;28;20113;-84
2023/05/02 00:36:26;;;;;;;5.22;3.67;;;;;;;;;;4985802;28;20061;-82
2023/05/02 00:38:51;;;;;;;4.35;3.30;;;;;;;;;;5003330;28;20043;-83
2023/05/02 00:41:17;;;;;;;4.97;3.53;;;;;;;;;;4986969;28;20084;-83
2023/05/02 00:43:42;;;;;;;5.18;3.78;;;;;;;;;;4983132;28;20462;-83
2023/05/02 00:46:10;;;;;;;4.80;3.28;;;;;;;;;;4978520;28;20465;-82
2023/05/02 00:48:36;;;;;;;4.82;3.38;;;;;;;;;;4981475;28;20030;-82
2023/05/02 00:51:07;;;;;;;5.07;3.45;;;;;;;;;;4977444;28;20023;-83
2023/05/02 00:53:42;;;;;;;5.93;4.03;;;;;;;;;;4972323;28;20026;-83
2023/05/02 00:56:08;;;;;;;5.55;4.38;;;;;;;;;;4974800;28;20118;-82
2023/05/02 00:58:36;;;;;;;4.43;3.30;;;;;;;;;;4974142;28;20027;-82
2023/05/02 01:01:23;;;;;;;7.30;3.60;;;;;;;;;;4979448;28;20056;-84
2023/05/02 01:04:07;;;;;;;5.20;4.18;;;;;;;;;;4972865;28;20026;-84
2023/05/02 01:06:41;;;;;;;3.97;3.47;;;;;;;;;;4970237;28;20026;-82
2023/05/02 01:09:53;;;;;;;5.15;3.85;;;;;;;;;;4979880;28;20034;-83
2023/05/02 01:12:30;;;;;;;6.30;3.63;;;;;;;;;;4920176;29;20093;-82
2023/05/02 01:14:57;;;;;;;6.05;4.22;;;;;;;;;;4965080;28;20042;-82
2023/05/02 01:17:26;;;;;;;6.03;3.88;;;;;;;;;;4976897;28;20125;-82
2023/05/02 01:19:56;;;;;;;4.32;3.63;;;;;;;;;;4976757;28;20026;-83
2023/05/02 01:22:23;;;;;;;5.47;3.58;;;;;;;;;;4977096;28;20042;-81
2023/05/02 01:25:00;;;;;;;5.72;3.92;;;;;;;;;;4973768;28;20031;-82
2023/05/02 01:27:35;;;;;;;4.40;3.42;;;;;;;;;;4971354;28;20023;-85
2023/05/02 01:30:02;;;;;;;4.78;3.60;;;;;;;;;;4983413;28;20054;-84
2023/05/02 01:32:30;;;;;;;5.75;3.97;;;;;;;;;;4983689;28;20039;-85
2023/05/02 01:34:57;;;;;;;4.50;3.58;;;;;;;;;;4978277;28;20524;-84
2023/05/02 01:37:24;;;;;;;6.32;4.20;;;;;;;;;;4975855;28;20106;-84
2023/05/02 01:39:53;;;;;;;3.67;3.33;;;;;;;;;;4971484;28;20050;-84
2023/05/02 01:42:19;;;;;;;5.55;3.60;;;;;;;;;;4973628;28;20047;-84
2023/05/02 01:44:46;;;;;;;6.55;3.85;;;;;;;;;;4977422;28;20093;-84
2023/05/02 01:47:12;;;;;;;5.35;3.45;;;;;;;;;;4970111;28;20491;-83
2023/05/02 01:49:41;;;;;;;5.20;3.80;;;;;;;;;;4977294;28;20094;-84
2023/05/02 01:52:11;;;;;;;4.43;3.65;;;;;;;;;;4978866;28;20030;-84
2023/05/02 01:54:39;;;;;;;5.20;3.63;;;;;;;;;;4975479;28;20180;-83
2023/05/02 01:57:07;;;;;;;5.03;3.70;;;;;;;;;;4976837;28;20089;-82
2023/05/02 01:59:34;;;;;;;5.50;4.07;;;;;;;;;;4976005;28;20019;-84
2023/05/02 02:02:01;;;;;;;8.13;3.67;;;;;;;;;;4976686;28;20030;-84
2023/05/02 02:04:28;;;;;;;5.13;3.53;;;;;;;;;;4974662;28;20041;-83
2023/05/02 02:07:10;;;;;;;4.63;3.50;;;;;;;;;;4974569;28;20026;-83
2023/05/02 02:09:36;;;;;;;5.70;3.97;;;;;;;;;;4971639;28;20618;-83
2023/05/02 02:12:06;;;;;;;6.05;3.97;;;;;;;;;;4976457;28;20050;-83
2023/05/02 02:14:37;;;;;;;4.65;3.78;;;;;;;;;;4973123;28;20114;-83
2023/05/02 02:17:14;;;;;;;4.78;3.92;;;;;;;;;;4972290;28;20035;-83
2023/05/02 02:19:41;;;;;;;5.63;3.80;;;;;;;;;;4964321;28;20041;-83
2023/05/02 02:22:07;;;;;;;6.18;4.13;;;;;;;;;;4977417;28;20399;-82
2023/05/02 02:24:35;;;;;;;5.47;3.90;;;;;;;;;;4972935;28;20487;-83
2023/05/02 02:27:01;;;;;;;4.90;3.67;;;;;;;;;;4965330;28;20086;-83
2023/05/02 02:29:28;;;;;;;7.97;4.32;;;;;;;;;;4971471;28;20026;-83
2023/05/02 02:31:53;;;;;;;4.95;3.97;;;;;;;;;;4971939;28;20506;-83
2023/05/02 02:34:19;;;;;;;6.88;3.85;;;;;;;;;;4977247;28;20093;-82
2023/05/02 02:37:24;;;;;;;5.32;3.58;;;;;;;;;;4974886;28;20406;-82
2023/05/02 02:39:59;;;;;;;5.40;3.58;;;;;;;;;;4910380;29;20036;-82
2023/05/02 02:42:38;;;;;;;4.95;3.47;;;;;;;;;;4961353;28;20031;-83
2023/05/02 02:45:22;;;;;;;6.97;3.70;;;;;;;;;;4969272;28;20081;-82
2023/05/02 02:48:15;;;;;;;6.28;4.30;;;;;;;;;;4973902;28;20038;-83
2023/05/02 02:50:40;;;;;;;4.90;3.90;;;;;;;;;;4974603;28;20556;-82
2023/05/02 02:53:11;;;;;;;5.75;4.20;;;;;;;;;;4972949;28;21108;-84
2023/05/02 02:55:54;;;;;;;5.65;3.80;;;;;;;;;;4974176;28;20058;-83
2023/05/02 02:58:50;;;;;;;5.07;3.75;;;;;;;;;;4973886;28;20026;-82
2023/05/02 03:01:22;;;;;;;4.35;3.33;;;;;;;;;;4965767;28;20054;-82
2023/05/02 03:03:50;;;;;;;7.47;4.03;;;;;;;;;;4974932;28;20058;-84
2023/05/02 03:06:17;;;;;;;8.05;4.10;;;;;;;;;;4975364;28;20110;-83
2023/05/02 03:08:43;;;;;;;5.90;4.22;;;;;;;;;;4976025;28;20061;-83
2023/05/02 03:11:09;;;;;;;6.00;3.90;;;;;;;;;;4975001;28;20042;-82
2023/05/02 03:13:35;;;;;;;5.72;4.10;;;;;;;;;;4971564;28;20031;-83
2023/05/02 03:16:26;;;;;;;6.35;4.28;;;;;;;;;;4976290;28;20039;-82
2023/05/02 03:18:51;;;;;;;6.20;4.32;;;;;;;;;;4981789;28;20058;-82
2023/05/02 03:21:16;;;;;;;6.53;4.50;;;;;;;;;;4977282;28;20038;-83
2023/05/02 03:23:42;;;;;;;5.63;4.05;;;;;;;;;;4974521;28;20031;-83
2023/05/02 03:26:07;;;;;;;5.05;3.90;;;;;;;;;;4975858;28;20031;-84
2023/05/02 03:28:32;;;;;;;5.97;4.10;;;;;;;;;;4972590;28;20047;-83
2023/05/02 03:30:58;;;;;;;4.78;3.75;;;;;;;;;;4971824;28;20027;-82
2023/05/02 03:33:24;;;;;;;5.60;4.70;;;;;;;;;;4976336;28;20558;-83
2023/05/02 03:35:49;;;;;;;5.50;3.97;;;;;;;;;;4975512;28;20023;-82
2023/05/02 03:38:15;;;;;;;5.63;3.58;;;;;;;;;;4978866;28;20081;-83
2023/05/02 03:40:40;;;;;;;7.60;4.20;;;;;;;;;;4976353;28;20054;-83
2023/05/02 03:43:05;;;;;;;6.80;4.47;;;;;;;;;;4976002;28;20034;-83
2023/05/02 03:45:30;;;;;;;5.07;3.72;;;;;;;;;;4972826;28;20019;-84
2023/05/02 03:47:56;;;;;;;4.70;3.83;;;;;;;;;;4973574;28;20480;-83
2023/05/02 03:50:21;;;;;;;9.07;4.10;;;;;;;;;;4973774;28;20026;-85
2023/05/02 03:52:47;;;;;;;6.70;4.53;;;;;;;;;;4974824;28;20053;-84
2023/05/02 03:55:12;;;;;;;7.53;4.82;;;;;;;;;;4980745;28;20395;-82
2023/05/02 03:57:37;;;;;;;5.38;4.20;;;;;;;;;;4977461;28;20674;-83
2023/05/02 04:00:04;;;;;;;5.18;4.20;;;;;;;;;;4976573;28;20030;-83
2023/05/02 04:02:29;;;;;;;5.20;4.05;;;;;;;;;;4979003;28;20030;-83
2023/05/02 04:04:55;;;;;;;5.50;3.92;;;;;;;;;;4977120;28;20026;-84
2023/05/02 04:07:20;;;;;;;9.85;4.22;;;;;;;;;;4977633;28;20041;-84
2023/05/02 04:09:46;;;;;;;8.50;4.70;;;;;;;;;;4976044;28;20027;-84
2023/05/02 04:12:11;;;;;;;6.10;4.28;;;;;;;;;;4977688;28;20026;-84
2023/05/02 04:14:37;;;;;;;6.45;4.28;;;;;;;;;;4977397;28;20031;-84
2023/05/02 04:17:02;;;;;;;7.18;5.15;;;;;;;;;;4985617;28;20026;-83
2023/05/02 04:19:28;;;;;;;6.78;4.85;;;;;;;;;;4976389;28;20096;-83
2023/05/02 04:21:53;;;;;;;8.65;4.90;;;;;;;;;;4974198;28;20022;-83
2023/05/02 04:24:19;;;;;;;7.85;4.10;;;;;;;;;;4984215;28;20037;-84
2023/05/02 04:26:46;;;;;;;7.13;4.53;;;;;;;;;;4979198;28;20372;-84
2023/05/02 04:29:12;;;;;;;7.40;4.78;;;;;;;;;;4979211;28;20038;-83
2023/05/02 04:31:38;;;;;;;6.53;5.20;;;;;;;;;;4975643;28;20037;-82
2023/05/02 04:34:03;;;;;;;7.50;4.82;;;;;;;;;;4978905;28;20045;-83
2023/05/02 04:36:28;;;;;;;6.07;4.53;;;;;;;;;;4976715;28;20430;-83
2023/05/02 04:38:54;;;;;;;6.22;4.80;;;;;;;;;;4978212;28;20038;-84
2023/05/02 04:41:20;;;;;;;14.48;4.85;;;;;;;;;;4977699;28;20027;-81
2023/05/02 04:43:45;;;;;;;7.80;5.15;;;;;;;;;;4977209;28;20026;-83
2023/05/02 04:46:11;;;;;;;9.00;5.05;;;;;;;;;;4976967;28;20059;-83
2023/05/02 04:48:40;;;;;;;8.35;5.05;;;;;;;;;;4976474;28;20042;-83
2023/05/02 04:51:06;;;;;;;7.03;5.53;;;;;;;;;;4979822;28;20038;-82
2023/05/02 04:53:32;;;;;;;7.35;5.38;;;;;;;;;;4995252;28;20018;-82
2023/05/02 04:55:57;;;;;;;6.03;4.38;;;;;;;;;;4994126;28;20042;-82
2023/05/02 04:58:23;;;;;;;8.38;5.05;;;;;;;;;;4988115;28;20043;-83
2023/05/02 05:00:48;;;;;;;7.03;5.28;;;;;;;;;;4978565;28;20037;-83
2023/05/02 05:03:13;;;;;;;10.98;4.95;;;;;;;;;;4975703;28;20035;-84
2023/05/02 05:05:38;;;;;;;8.95;4.82;;;;;;;;;;4977991;28;20026;-83
2023/05/02 05:08:04;;;;;;;7.28;4.82;;;;;;;;;;4979383;28;20093;-84
2023/05/02 05:10:29;;;;;;;5.47;4.47;;;;;;;;;;4977202;28;20026;-83
2023/05/02 05:12:54;;;;;;;8.43;4.88;;;;;;;;;;4978968;28;20443;-84
2023/05/02 05:15:21;;;;;;;7.80;5.40;;;;;;;;;;4974121;28;20030;-84
2023/05/02 05:17:46;;;;;;;9.68;5.18;;;;;;;;;;4978387;28;20030;-85
2023/05/02 05:20:12;;;;;;;5.93;4.55;;;;;;;;;;4975823;28;20027;-83
2023/05/02 05:22:41;;;;;;;8.65;4.63;;;;;;;;;;4975900;28;20026;-88
2023/05/02 05:25:08;;;;;;;7.80;4.95;;;;;;;;;;4971260;28;20130;-82
2023/05/02 05:27:34;;;;;;;7.00;5.20;;;;;;;;;;4962936;28;20026;-83
2023/05/02 05:29:59;;;;;;;7.15;4.88;;;;;;;;;;4980605;28;20030;-83
2023/05/02 05:32:24;;;;;;;8.20;5.38;;;;;;;;;;4997063;28;20014;-82
2023/05/02 05:34:53;;;;;;;7.82;5.25;;;;;;;;;;4974612;28;20395;-84
2023/05/02 05:37:19;;;;;;;7.75;5.20;;;;;;;;;;4975221;28;20034;-83
2023/05/02 05:39:44;;;;;;;8.10;5.15;;;;;;;;;;4977044;28;20094;-83
2023/05/02 05:42:11;;;;;;;8.05;5.38;;;;;;;;;;4980931;28;20140;-84
2023/05/02 05:44:36;;;;;;;7.88;5.75;;;;;;;;;;4973721;28;20517;-83
2023/05/02 05:47:02;;;;;;;7.45;5.80;;;;;;;;;;4965987;28;20026;-82
2023/05/02 05:49:27;;;;;;;7.32;5.53;;;;;;;;;;4970858;28;20035;-82
2023/05/02 05:51:53;;;;;;;7.63;5.47;;;;;;;;;;4976381;28;20065;-82
2023/05/02 05:54:18;;;;;;;7.88;5.78;;;;;;;;;;4975091;28;20057;-82
2023/05/02 05:56:44;;;;;;;8.40;5.63;;;;;;;;;;4973805;28;20114;-83
2023/05/02 05:59:09;;;;;;;8.55;5.50;;;;;;;;;;4972694;28;20387;-84
2023/05/02 06:01:35;;;;;;;10.18;6.30;;;;;;;;;;4980118;28;20137;-84
2023/05/02 06:04:01;;;;;;;10.43;5.93;;;;;;;;;;4977977;28;20031;-83
2023/05/02 06:06:27;;;;;;;13.68;6.47;;;;;;;;;;4965198;28;20158;-83
2023/05/02 06:08:53;;;;;;;8.75;6.10;;;;;;;;;;4979486;28;20039;-83
2023/05/02 06:11:18;;;;;;;15.52;6.95;;;;;;;;;;4969897;28;20046;-81
2023/05/02 06:13:44;;;;;;;7.28;5.43;;;;;;;;;;4986985;28;20032;-84
2023/05/02 06:16:10;;;;;;;11.85;5.78;;;;;;;;;;4971887;28;20054;-83
2023/05/02 06:18:35;;;;;;;10.38;6.60;;;;;;;;;;4970286;28;20047;-81
2023/05/02 06:21:04;;;;;;;11.80;6.57;;;;;;;;;;4977297;28;20037;-83
2023/05/02 06:23:30;;;;;;;8.57;6.10;;;;;;;;;;4984223;28;20057;-82
2023/05/02 06:25:59;;;;;;;9.57;5.50;;;;;;;;;;4977713;28;20023;-82
2023/05/02 06:28:24;;;;;;;8.23;5.68;;;;;;;;;;4978596;28;20033;-82
2023/05/02 06:31:02;;;;;;;9.75;6.05;;;;;;;;;;4993639;28;20026;-84
2023/05/02 06:33:28;;;;;;;9.13;6.18;;;;;;;;;;4979334;28;20214;-85
2023/05/02 06:35:53;;;;;;;8.27;5.63;;;;;;;;;;4972123;28;20574;-86
2023/05/02 06:38:19;;;;;;;11.50;7.35;;;;;;;;;;4964204;28;20039;-85
2023/05/02 06:40:45;;;;;;;11.15;7.55;;;;;;;;;;4978513;28;20105;-86
2023/05/02 06:43:12;;;;;;;11.63;7.57;;;;;;;;;;4975455;28;20055;-83
2023/05/02 06:45:37;;;;;;;11.40;6.32;;;;;;;;;;4968137;28;20102;-84
2023/05/02 06:48:03;;;;;;;11.02;7.85;;;;;;;;;;4963450;28;20026;-84
2023/05/02 06:50:28;;;;;;;11.68;7.18;;;;;;;;;;4977909;28;20491;-84
2023/05/02 06:52:54;;;;;;;13.40;7.30;;;;;;;;;;4976835;28;20026;-84
2023/05/02 06:55:20;;;;;;;11.45;8.40;;;;;;;;;;4968001;28;20035;-83
2023/05/02 06:57:45;;;;;;;16.23;7.80;;;;;;;;;;4977865;28;20049;-85
2023/05/02 07:00:11;;;;;;;11.38;7.60;;;;;;;;;;4971489;28;20043;-82
2023/05/02 07:02:37;;;;;;;12.60;7.57;;;;;;;;;;4976956;28;20022;-84
2023/05/02 07:05:03;;;;;;;10.73;7.55;;;;;;;;;;4970646;28;20414;-83
2023/05/02 07:07:28;;;;;;;15.35;7.95;;;;;;;;;;4963206;28;20571;-83
2023/05/02 07:09:54;;;;;;;13.65;8.65;;;;;;;;;;4977084;28;20054;-85
2023/05/02 07:12:20;;;;;;;14.18;8.90;;;;;;;;;;4977783;28;20113;-85
2023/05/02 07:14:45;;;;;;;12.75;8.63;;;;;;;;;;4970485;28;20070;-84
2023/05/02 07:17:11;;;;;;;15.27;8.48;;;;;;;;;;4963630;28;20055;-83
2023/05/02 07:19:37;;;;;;;12.48;8.35;;;;;;;;;;4969887;28;20027;-83
2023/05/02 07:22:02;;;;;;;13.18;9.20;;;;;;;;;;4977425;28;20023;-84
2023/05/02 07:24:28;;;;;;;12.98;8.90;;;;;;;;;;4980380;28;20037;-83
2023/05/02 07:26:53;;;;;;;15.35;9.82;;;;;;;;;;4969530;28;20391;-83
2023/05/02 07:29:18;;;;;;;16.05;9.98;;;;;;;;;;4979405;28;20174;-81
2023/05/02 07:31:43;;;;;;;16.02;9.18;;;;;;;;;;4975216;28;20022;-85
2023/05/02 07:34:09;;;;;;;13.52;8.52;;;;;;;;;;4977405;28;20030;-84
2023/05/02 07:36:34;;;;;;;16.95;9.98;;;;;;;;;;4973459;28;20022;-86
2023/05/02 07:38:59;;;;;;;20.25;9.82;;;;;;;;;;4974409;28;20073;-85
2023/05/02 07:41:25;;;;;;;15.70;10.25;;;;;;;;;;4969827;28;20093;-85
2023/05/02 07:43:50;;;;;;;14.32;9.15;;;;;;;;;;4977337;28;20023;-85
2023/05/02 07:46:16;;;;;;;20.83;10.70;;;;;;;;;;4982361;28;20019;-86
2023/05/02 07:48:41;;;;;;;22.10;11.23;;;;;;;;;;4982538;28;20031;-86
2023/05/02 07:51:08;;;;;;;16.48;11.23;;;;;;;;;;4975942;28;20479;-85
2023/05/02 07:53:33;;;;;;;19.40;10.95;;;;;;;;;;4977526;28;20026;-86
2023/05/02 07:55:59;;;;;;;15.73;10.35;;;;;;;;;;4974413;28;20031;-85
2023/05/02 07:58:24;;;;;;;18.27;11.68;;;;;;;;;;4970924;28;20019;-85
2023/05/02 08:00:49;;;;;;;17.40;10.90;;;;;;;;;;4973777;28;20553;-86
2023/05/02 08:03:15;;;;;;;18.00;11.55;;;;;;;;;;4974595;28;20397;-85
2023/05/02 08:05:40;;;;;;;14.13;9.93;;;;;;;;;;4976876;28;20019;-86
2023/05/02 08:08:06;;;;;;;22.92;12.45;;;;;;;;;;4977178;28;20082;-85
2023/05/02 08:10:32;;;;;;;20.15;11.20;;;;;;;;;;4977274;28;20034;-86
2023/05/02 08:12:57;;;;;;;17.02;11.48;;;;;;;;;;4977159;28;20084;-86
2023/05/02 08:15:22;;;;;;;17.95;11.60;;;;;;;;;;4975279;28;20101;-85
2023/05/02 08:17:48;;;;;;;24.13;12.82;;;;;;;;;;4978338;28;20510;-86
2023/05/02 08:20:13;;;;;;;18.35;12.13;;;;;;;;;;4978125;28;20022;-85
2023/05/02 08:22:39;;;;;;;20.45;13.00;;;;;;;;;;4978718;28;20045;-85
2023/05/02 08:25:04;;;;;;;21.40;12.70;;;;;;;;;;4980037;28;20054;-85
2023/05/02 08:27:29;;;;;;;22.67;13.60;;;;;;;;;;4978937;28;20030;-85
2023/05/02 08:29:55;;;;;;;20.90;13.27;;;;;;;;;;4975582;28;20607;-85
2023/05/02 08:32:21;;;;;;;24.10;13.20;;;;;;;;;;4975601;28;20498;-85
2023/05/02 08:34:47;;;;;;;20.67;11.90;;;;;;;;;;4991714;28;20029;-84
2023/05/02 08:37:12;;;;;;;20.05;12.32;;;;;;;;;;4977181;28;20050;-85
2023/05/02 08:39:37;;;;;;;21.85;12.43;;;;;;;;;;4977943;28;20027;-86
2023/05/02 08:42:08;;;;;;;20.25;13.18;;;;;;;;;;4980202;28;20026;-85
2023/05/02 08:44:34;;;;;;;22.93;13.03;;;;;;;;;;4977413;28;20019;-84
2023/05/02 08:47:00;;;;;;;23.02;12.57;;;;;;;;;;4978958;28;20034;-86
2023/05/02 08:49:28;;;;;;;24.02;14.05;;;;;;;;;;4977374;28;20509;-85
2023/05/02 08:51:54;;;;;;;17.42;12.15;;;;;;;;;;4977591;28;20050;-85
2023/05/02 08:54:20;;;;;;;19.98;12.82;;;;;;;;;;4979077;28;20035;-85
2023/05/02 08:56:46;;;;;;;21.35;12.60;;;;;;;;;;4978497;28;20034;-86
2023/05/02 08:59:11;;;;;;;18.30;12.40;;;;;;;;;;4982768;28;20030;-86
2023/05/02 09:01:39;;;;;;;18.58;12.40;;;;;;;;;;4980369;28;20093;-86
2023/05/02 09:04:04;;;;;;;20.63;12.82;;;;;;;;;;4977839;28;20085;-84
2023/05/02 09:06:31;;;;;;;18.33;12.80;;;;;;;;;;4978003;28;20035;-86
2023/05/02 09:08:59;;;;;;;21.63;13.07;;;;;;;;;;4978972;28;20395;-84
2023/05/02 09:11:24;;;;;;;18.05;12.52;;;;;;;;;;4977374;28;20542;-85
2023/05/02 09:13:51;;;;;;;18.90;12.68;;;;;;;;;;4978317;28;20115;-84
2023/05/02 09:16:22;;;;;;;20.13;13.52;;;;;;;;;;4978731;28;20026;-83
2023/05/02 09:18:49;;;;;;;19.52;12.23;;;;;;;;;;4978528;28;20037;-85
2023/05/02 09:21:17;;;;;;;18.20;11.68;;;;;;;;;;4977728;28;20027;-84
2023/05/02 09:23:43;;;;;;;20.85;12.25;;;;;;;;;;4976503;28;20023;-85
2023/05/02 09:26:22;;;;;;;23.55;13.05;;;;;;;;;;4976437;28;20039;-86
2023/05/02 09:28:50;;;;;;;21.77;12.73;;;;;;;;;;4972711;28;20051;-85
2023/05/02 09:31:26;;;;;;;17.50;12.05;;;;;;;;;;4991683;28;20074;-85
2023/05/02 09:33:53;;;;;;;21.65;12.75;;;;;;;;;;4988268;28;20023;-85
2023/05/02 09:36:20;;;;;;;25.85;12.90;;;;;;;;;;4985292;28;20035;-86
2023/05/02 09:38:48;;;;;;;21.80;13.38;;;;;;;;;;4980123;28;20022;-85
2023/05/02 09:41:13;;;;;;;20.08;12.43;;;;;;;;;;4978097;28;20022;-84
2023/05/02 09:43:39;;;;;;;20.63;13.10;;;;;;;;;;4978120;28;20077;-86
2023/05/02 09:46:10;;;;;;;20.40;12.80;;;;;;;;;;4975560;28;20043;-86
2023/05/02 09:48:52;;;;;;;19.42;12.15;;;;;;;;;;4977436;28;20027;-85
2023/05/02 09:51:19;;;;;;;19.63;13.15;;;;;;;;;;4975123;28;20054;-86
2023/05/02 09:53:45;;;;;;;19.38;12.65;;;;;;;;;;4978726;28;20035;-85
2023/05/02 09:56:10;;;;;;;19.40;13.05;;;;;;;;;;4977505;28;20065;-86
2023/05/02 09:58:35;;;;;;;17.08;12.35;;;;;;;;;;4976544;28;20050;-86
2023/05/02 10:01:01;;;;;;;19.58;11.30;;;;;;;;;;4977536;28;20070;-85
2023/05/02 10:03:28;;;;;;;17.55;12.30;;;;;;;;;;4975714;28;20061;-85
2023/05/02 10:05:54;;;;;;;20.30;12.15;;;;;;;;;;4974624;28;20035;-86
2023/05/02 10:08:25;;;;;;;18.13;11.55;;;;;;;;;;4973802;28;20030;-87
2023/05/02 10:10:56;;;;;;;17.30;10.75;;;;;;;;;;4976611;28;20023;-86
2023/05/02 10:13:26;;;;;;;16.05;11.55;;;;;;;;;;4975219;28;20027;-87
2023/05/02 10:16:02;;;;;;;14.80;11.00;;;;;;;;;;4976158;28;20656;-87
2023/05/02 10:18:55;;;;;;;17.20;10.75;;;;;;;;;;4981105;28;20031;-85
2023/05/02 10:21:26;;;;;;;15.45;11.15;;;;;;;;;;4982677;28;20030;-85
2023/05/02 10:23:52;;;;;;;15.73;11.60;;;;;;;;;;4983829;28;20034;-86
2023/05/02 10:26:20;;;;;;;21.48;11.32;;;;;;;;;;4982709;28;20027;-86
2023/05/02 10:28:46;;;;;;;14.55;10.23;;;;;;;;;;4985482;28;20027;-86
2023/05/02 10:31:13;;;;;;;14.23;9.68;;;;;;;;;;5002862;28;20007;-87
2023/05/02 10:33:39;;;;;;;15.80;10.73;;;;;;;;;;4977961;28;20022;-87
2023/05/02 10:36:08;;;;;;;17.15;11.30;;;;;;;;;;4982521;28;20033;-84
2023/05/02 10:38:36;;;;;;;15.00;9.55;;;;;;;;;;4982759;28;20027;-85
2023/05/02 10:41:09;;;;;;;17.35;10.20;;;;;;;;;;4983209;28;20039;-83
2023/05/02 10:43:36;;;;;;;15.02;10.57;;;;;;;;;;4991953;28;20027;-83
2023/05/02 10:46:02;;;;;;;13.73;9.93;;;;;;;;;;4986685;28;20055;-83
2023/05/02 10:48:28;;;;;;;15.75;10.82;;;;;;;;;;4987568;28;20018;-82
2023/05/02 10:51:00;;;;;;;14.05;9.20;;;;;;;;;;4987698;28;20025;-83
2023/05/02 10:53:35;;;;;;;;;;;;;;;;;;4992419;28;20019;-83
2023/05/02 10:56:11;;;;;;;15.00;9.45;;;;;;;;;;4985121;28;19921;-82
2023/05/02 10:58:37;;;;;;;15.07;9.88;;;;;;;;;;4983133;28;20026;-85
2023/05/02 11:01:28;;;;;;;15.77;9.73;;;;;;;;;;4981434;28;20030;-84
2023/05/02 11:04:01;;;;;;;15.55;9.18;;;;;;;;;;4989031;28;20034;-83
2023/05/02 11:06:29;;;;;;;17.00;9.18;;;;;;;;;;4983238;28;20058;-84
2023/05/02 11:09:17;;;;;;;14.38;9.57;;;;;;;;;;4980806;28;20027;-82
2023/05/02 11:11:46;;;;;;;13.65;10.40;;;;;;;;;;4981125;28;20022;-83
2023/05/02 11:14:38;;;;;;;17.95;10.63;;;;;;;;;;4979863;28;20035;-83
2023/05/02 11:17:03;;;;;;;15.00;9.13;;;;;;;;;;4978170;28;20074;-82
2023/05/02 11:19:50;;;;;;;15.25;10.90;;;;;;;;;;4980515;28;20023;-83
2023/05/02 11:22:26;;;;;;;16.15;11.10;;;;;;;;;;4978302;28;20054;-84
2023/05/02 11:24:52;;;;;;;18.27;10.65;;;;;;;;;;4980245;28;20173;-84
2023/05/02 11:27:36;;;;;;;19.00;11.63;;;;;;;;;;4981626;28;20038;-83
2023/05/02 11:30:06;;;;;;;20.65;11.63;;;;;;;;;;4980450;28;20125;-84
2023/05/02 11:32:47;;;;;;;17.85;11.35;;;;;;;;;;4978710;28;20050;-83
2023/05/02 11:35:15;;;;;;;21.25;12.25;;;;;;;;;;4981142;28;20084;-83
2023/05/02 11:37:41;;;;;;;18.52;11.57;;;;;;;;;;4979165;28;20117;-84
2023/05/02 11:40:13;;;;;;;19.25;12.50;;;;;;;;;;4979489;28;20105;-84
2023/05/02 11:42:41;;;;;;;17.80;12.10;;;;;;;;;;4970653;28;20019;-83
2023/05/02 11:45:06;;;;;;;24.27;13.00;;;;;;;;;;4980094;28;20026;-84
2023/05/02 11:47:32;;;;;;;18.98;12.93;;;;;;;;;;4979659;28;20042;-84
2023/05/02 11:49:59;;;;;;;17.60;11.55;;;;;;;;;;4978674;28;20035;-84
2023/05/02 11:52:25;;;;;;;20.70;12.55;;;;;;;;;;4978299;28;20023;-83
2023/05/02 11:54:57;;;;;;;17.73;12.02;;;;;;;;;;4977816;28;20027;-85
2023/05/02 11:57:22;;;;;;;18.65;11.07;;;;;;;;;;4973893;28;20425;-84
2023/05/02 11:59:52;;;;;;;23.15;12.10;;;;;;;;;;4974224;28;20039;-85
2023/05/02 12:02:18;;;;;;;18.77;11.63;;;;;;;;;;4979270;28;20101;-84
2023/05/02 12:04:43;;;;;;;16.23;11.10;;;;;;;;;;4976437;28;20034;-84
2023/05/02 12:07:09;;;;;;;17.60;10.48;;;;;;;;;;4977785;28;20026;-84
2023/05/02 12:09:34;;;;;;;14.90;10.70;;;;;;;;;;4976355;28;20015;-86
2023/05/02 12:12:00;;;;;;;17.88;10.70;;;;;;;;;;4977156;28;20030;-86
2023/05/02 12:14:32;;;;;;;19.15;11.18;;;;;;;;;;4978992;28;20035;-85
2023/05/02 12:16:58;;;;;;;16.05;10.43;;;;;;;;;;4985811;28;20054;-82
2023/05/02 12:19:24;;;;;;;25.88;11.73;;;;;;;;;;4979508;28;20058;-83
2023/05/02 12:21:50;;;;;;;20.00;12.80;;;;;;;;;;4979671;28;20033;-86
2023/05/02 12:24:16;;;;;;;19.30;12.32;;;;;;;;;;4979753;28;20046;-86
2023/05/02 12:26:41;;;;;;;21.55;13.10;;;;;;;;;;4979779;28;20023;-84
2023/05/02 12:29:07;;;;;;;22.35;11.57;;;;;;;;;;4980178;28;20035;-86
2023/05/02 12:31:33;;;;;;;18.52;12.43;;;;;;;;;;4980149;28;20029;-84
2023/05/02 12:33:59;;;;;;;18.85;12.35;;;;;;;;;;4978609;28;20035;-84
2023/05/02 12:36:29;;;;;;;25.48;12.68;;;;;;;;;;4981193;28;20034;-84
2023/05/02 12:38:58;;;;;;;18.50;11.23;;;;;;;;;;4980058;28;20034;-83
2023/05/02 12:41:34;;;;;;;17.65;11.50;;;;;;;;;;4979179;28;20078;-84
2023/05/02 12:44:00;;;;;;;23.23;12.07;;;;;;;;;;4977835;28;20042;-83
2023/05/02 12:46:27;;;;;;;20.50;11.27;;;;;;;;;;4980667;28;20083;-85
2023/05/02 12:49:07;;;;;;;17.38;11.07;;;;;;;;;;4988320;28;20095;-84
2023/05/02 12:51:33;;;;;;;15.18;10.02;;;;;;;;;;4987369;28;20099;-84
2023/05/02 12:53:58;;;;;;;14.93;10.23;;;;;;;;;;4982935;28;20030;-84
2023/05/02 12:56:26;;;;;;;13.70;9.07;;;;;;;;;;4978722;28;20126;-84
2023/05/02 12:58:51;;;;;;;14.25;9.73;;;;;;;;;;4974691;28;20031;-83
2023/05/02 13:01:17;;;;;;;16.50;9.50;;;;;;;;;;4979611;28;20411;-84
2023/05/02 13:03:43;;;;;;;16.63;9.88;;;;;;;;;;4978217;28;20369;-83
2023/05/02 13:06:08;;;;;;;17.23;10.82;;;;;;;;;;4985709;28;20022;-83
2023/05/02 13:08:35;;;;;;;14.60;9.38;;;;;;;;;;4979992;28;20031;-83
2023/05/02 13:11:02;;;;;;;13.90;9.05;;;;;;;;;;4986593;28;20030;-83
2023/05/02 13:13:28;;;;;;;12.20;7.80;;;;;;;;;;4988923;28;20033;-83
2023/05/02 13:15:53;;;;;;;15.52;8.75;;;;;;;;;;4979052;28;20030;-84
2023/05/02 13:18:19;;;;;;;13.48;8.55;;;;;;;;;;4977467;28;20030;-83
2023/05/02 13:20:44;;;;;;;15.75;9.27;;;;;;;;;;4978784;28;20023;-84
2023/05/02 13:23:09;;;;;;;11.82;6.45;;;;;;;;;;4979016;28;20037;-84
2023/05/02 13:25:35;;;;;;;10.85;7.53;;;;;;;;;;4971503;28;20018;-83
2023/05/02 13:28:00;;;;;;;11.55;7.57;;;;;;;;;;4973103;28;20097;-84
2023/05/02 13:30:25;;;;;;;10.85;6.85;;;;;;;;;;4976461;28;20015;-84
2023/05/02 13:32:51;;;;;;;10.20;6.53;;;;;;;;;;4978564;28;20506;-84
2023/05/02 13:35:17;;;;;;;12.70;7.95;;;;;;;;;;4971441;28;20514;-83
2023/05/02 13:37:42;;;;;;;15.73;8.95;;;;;;;;;;4963500;28;20073;-83
2023/05/02 13:40:08;;;;;;;14.63;8.35;;;;;;;;;;4977426;28;20081;-84
2023/05/02 13:42:33;;;;;;;16.98;9.18;;;;;;;;;;4979006;28;20081;-84
2023/05/02 13:45:01;;;;;;;10.30;7.18;;;;;;;;;;4970037;28;20042;-83
2023/05/02 13:47:27;;;;;;;15.57;8.35;;;;;;;;;;4971312;28;20392;-82
2023/05/02 13:49:52;;;;;;;16.40;9.48;;;;;;;;;;4989375;28;20026;-84
2023/05/02 13:52:17;;;;;;;14.95;9.73;;;;;;;;;;4982012;28;20476;-83
2023/05/02 13:54:43;;;;;;;16.60;10.05;;;;;;;;;;4973082;28;20038;-83
2023/05/02 13:57:11;;;;;;;12.50;7.93;;;;;;;;;;4974337;28;20034;-81
2023/05/02 13:59:36;;;;;;;13.65;8.88;;;;;;;;;;5136144;23;20049;-79
2023/05/02 14:02:02;;;;;;;14.07;7.97;;;;;;;;;;4995603;28;20106;-81
2023/05/02 14:04:27;;;;;;;11.35;6.70;;;;;;;;;;4998966;28;20034;-80
2023/05/02 14:06:53;;;;;;;14.23;6.78;;;;;;;;;;5010741;28;20096;-79
2023/05/02 14:09:19;;;;;;;9.63;6.20;;;;;;;;;;5002452;28;20018;-81
2023/05/02 14:11:46;;;;;;;12.07;6.57;;;;;;;;;;4999358;28;20755;-82
2023/05/02 14:14:12;;;;;;;13.45;7.82;;;;;;;;;;4970750;28;20026;-82
2023/05/02 14:16:38;;;;;;;11.63;6.70;;;;;;;;;;4991533;28;20073;-82
2023/05/02 14:19:03;;;;;;;8.13;4.93;;;;;;;;;;4992215;28;20041;-83
2023/05/02 14:21:29;;;;;;;8.00;4.13;;;;;;;;;;5005309;28;20072;-82
2023/05/02 14:23:54;;;;;;;7.63;4.45;;;;;;;;;;5000854;28;20026;-82
2023/05/02 14:26:20;;;;;;;6.28;4.40;;;;;;;;;;4979574;28;20046;-82
2023/05/02 14:28:45;;;;;;;8.70;4.60;;;;;;;;;;4995085;28;20506;-83
2023/05/02 14:31:11;;;;;;;9.10;4.93;;;;;;;;;;4983626;28;20117;-83
2023/05/02 14:33:36;;;;;;;14.45;5.55;;;;;;;;;;4987985;28;20034;-83